sensor_id;sensor_type;location;lat;lon;timestamp;P1;durP1;ratioP1;P2;durP2;ratioP2
1026;SDS011;502;48.746;9.214;2023-03-05T00:00:00;24.80;;;14.50;;
1026;SDS011;502;48.746;9.214;2023-03-05T00:02:26;29.83;;;16.43;;
1026;SDS011;502;48.746;9.214;2023-03-05T00:04:53;27.37;;;15.00;;
1026;SDS011;502;48.746;9.214;2023-03-05T00:07:20;24.00;;;13.87;;
1026;SDS011;502;48.746;9.214;2023-03-05T00:09:47;23.90;;;15.07;;
1026;SDS011;502;48.746;9.214;2023-03-05T00:12:15;26.60;;;14.07;;
1026;SDS011;502;48.746;9.214;2023-03-05T00:14:44;25.20;;;15.20;;
1026;SDS011;502;48.746;9.214;2023-03-05T00:17:11;25.97;;;15.67;;
1026;SDS011;502;48.746;9.214;2023-03-05T00:19:37;28.23;;;15.50;;
1026;SDS011;502;48.746;9.214;2023-03-05T00:22:04;23.40;;;14.60;;
1026;SDS011;502;48.746;9.214;2023-03-05T00:24:31;25.10;;;15.80;;
1026;SDS011;502;48.746;9.214;2023-03-05T00:26:58;25.50;;;14.97;;
1026;SDS011;502;48.746;9.214;2023-03-05T00:29:24;21.03;;;14.80;;
1026;SDS011;502;48.746;9.214;2023-03-05T00:31:53;25.87;;;14.13;;
1026;SDS011;502;48.746;9.214;2023-03-05T00:34:20;27.27;;;16.30;;
1026;SDS011;502;48.746;9.214;2023-03-05T00:36:50;21.40;;;13.30;;
1026;SDS011;502;48.746;9.214;2023-03-05T00:39:18;19.53;;;13.30;;
1026;SDS011;502;48.746;9.214;2023-03-05T00:41:45;28.07;;;15.47;;
1026;SDS011;502;48.746;9.214;2023-03-05T00:44:12;22.10;;;13.70;;
1026;SDS011;502;48.746;9.214;2023-03-05T00:46:39;25.50;;;15.07;;
1026;SDS011;502;48.746;9.214;2023-03-05T00:49:07;21.87;;;14.47;;
1026;SDS011;502;48.746;9.214;2023-03-05T00:51:34;22.77;;;15.30;;
1026;SDS011;502;48.746;9.214;2023-03-05T00:54:01;25.93;;;15.00;;
1026;SDS011;502;48.746;9.214;2023-03-05T00:56:28;24.90;;;15.00;;
1026;SDS011;502;48.746;9.214;2023-03-05T00:58:55;19.50;;;14.17;;
1026;SDS011;502;48.746;9.214;2023-03-05T01:01:23;27.60;;;15.97;;
1026;SDS011;502;48.746;9.214;2023-03-05T01:03:50;25.57;;;14.30;;
1026;SDS011;502;48.746;9.214;2023-03-05T01:06:18;22.97;;;14.63;;
1026;SDS011;502;48.746;9.214;2023-03-05T01:08:45;22.30;;;14.70;;
1026;SDS011;502;48.746;9.214;2023-03-05T01:11:12;23.23;;;15.40;;
1026;SDS011;502;48.746;9.214;2023-03-05T01:13:39;20.80;;;13.77;;
1026;SDS011;502;48.746;9.214;2023-03-05T01:16:06;23.20;;;14.73;;
1026;SDS011;502;48.746;9.214;2023-03-05T01:18:33;19.87;;;13.97;;
1026;SDS011;502;48.746;9.214;2023-03-05T01:21:00;25.70;;;14.40;;
1026;SDS011;502;48.746;9.214;2023-03-05T01:23:28;24.17;;;14.87;;
1026;SDS011;502;48.746;9.214;2023-03-05T01:25:55;24.27;;;14.60;;
1026;SDS011;502;48.746;9.214;2023-03-05T01:28:23;25.20;;;14.90;;
1026;SDS011;502;48.746;9.214;2023-03-05T01:30:50;23.53;;;14.47;;
1026;SDS011;502;48.746;9.214;2023-03-05T01:33:17;27.20;;;15.50;;
1026;SDS011;502;48.746;9.214;2023-03-05T01:35:44;29.73;;;14.80;;
1026;SDS011;502;48.746;9.214;2023-03-05T01:38:11;24.70;;;15.10;;
1026;SDS011;502;48.746;9.214;2023-03-05T01:40:40;24.90;;;15.27;;
1026;SDS011;502;48.746;9.214;2023-03-05T01:43:15;22.10;;;14.50;;
1026;SDS011;502;48.746;9.214;2023-03-05T01:49:03;23.90;;;15.27;;
1026;SDS011;502;48.746;9.214;2023-03-05T01:51:36;21.47;;;14.60;;
1026;SDS011;502;48.746;9.214;2023-03-05T01:54:05;24.03;;;14.60;;
1026;SDS011;502;48.746;9.214;2023-03-05T01:56:34;24.33;;;14.93;;
1026;SDS011;502;48.746;9.214;2023-03-05T01:59:01;25.77;;;14.70;;
1026;SDS011;502;48.746;9.214;2023-03-05T02:01:30;23.80;;;14.90;;
1026;SDS011;502;48.746;9.214;2023-03-05T02:03:58;25.70;;;13.93;;
1026;SDS011;502;48.746;9.214;2023-03-05T02:06:25;23.73;;;13.57;;
1026;SDS011;502;48.746;9.214;2023-03-05T02:08:53;23.20;;;14.00;;
1026;SDS011;502;48.746;9.214;2023-03-05T02:11:19;19.47;;;13.30;;
1026;SDS011;502;48.746;9.214;2023-03-05T02:13:51;22.53;;;13.37;;
1026;SDS011;502;48.746;9.214;2023-03-05T02:16:18;24.70;;;16.07;;
1026;SDS011;502;48.746;9.214;2023-03-05T02:18:44;21.00;;;13.67;;
1026;SDS011;502;48.746;9.214;2023-03-05T02:21:13;20.90;;;13.80;;
1026;SDS011;502;48.746;9.214;2023-03-05T02:23:39;22.97;;;13.73;;
1026;SDS011;502;48.746;9.214;2023-03-05T02:26:07;26.57;;;15.03;;
1026;SDS011;502;48.746;9.214;2023-03-05T02:28:37;25.63;;;14.23;;
1026;SDS011;502;48.746;9.214;2023-03-05T02:31:09;25.30;;;14.47;;
1026;SDS011;502;48.746;9.214;2023-03-05T02:33:39;24.50;;;14.73;;
1026;SDS011;502;48.746;9.214;2023-03-05T02:36:06;27.10;;;13.57;;
1026;SDS011;502;48.746;9.214;2023-03-05T02:38:35;24.50;;;13.80;;
1026;SDS011;502;48.746;9.214;2023-03-05T02:41:02;21.30;;;13.33;;
1026;SDS011;502;48.746;9.214;2023-03-05T02:43:29;19.23;;;11.77;;
1026;SDS011;502;48.746;9.214;2023-03-05T02:45:56;17.53;;;11.37;;
1026;SDS011;502;48.746;9.214;2023-03-05T02:48:23;21.00;;;12.30;;
1026;SDS011;502;48.746;9.214;2023-03-05T02:50:50;16.60;;;11.27;;
1026;SDS011;502;48.746;9.214;2023-03-05T02:53:17;19.40;;;11.80;;
1026;SDS011;502;48.746;9.214;2023-03-05T02:55:46;19.50;;;11.13;;
1026;SDS011;502;48.746;9.214;2023-03-05T02:58:14;19.83;;;10.50;;
1026;SDS011;502;48.746;9.214;2023-03-05T03:00:41;16.43;;;9.93;;
1026;SDS011;502;48.746;9.214;2023-03-05T03:03:08;17.10;;;11.17;;
1026;SDS011;502;48.746;9.214;2023-03-05T03:05:35;15.07;;;10.40;;
1026;SDS011;502;48.746;9.214;2023-03-05T03:08:02;17.67;;;10.13;;
1026;SDS011;502;48.746;9.214;2023-03-05T03:10:29;16.83;;;10.40;;
1026;SDS011;502;48.746;9.214;2023-03-05T03:12:57;15.13;;;9.33;;
1026;SDS011;502;48.746;9.214;2023-03-05T03:15:24;17.60;;;10.33;;
1026;SDS011;502;48.746;9.214;2023-03-05T03:17:51;15.90;;;9.70;;
1026;SDS011;502;48.746;9.214;2023-03-05T03:20:19;17.70;;;10.20;;
1026;SDS011;502;48.746;9.214;2023-03-05T03:22:46;17.40;;;10.60;;
1026;SDS011;502;48.746;9.214;2023-03-05T03:25:13;15.73;;;10.00;;
1026;SDS011;502;48.746;9.214;2023-03-05T03:27:40;16.63;;;9.23;;
1026;SDS011;502;48.746;9.214;2023-03-05T03:30:09;14.63;;;9.27;;
1026;SDS011;502;48.746;9.214;2023-03-05T03:32:37;15.13;;;8.47;;
1026;SDS011;502;48.746;9.214;2023-03-05T03:35:04;19.03;;;9.90;;
1026;SDS011;502;48.746;9.214;2023-03-05T03:37:32;15.63;;;9.40;;
1026;SDS011;502;48.746;9.214;2023-03-05T03:39:59;14.33;;;9.60;;
1026;SDS011;502;48.746;9.214;2023-03-05T03:42:25;16.17;;;9.43;;
1026;SDS011;502;48.746;9.214;2023-03-05T03:44:52;16.50;;;9.17;;
1026;SDS011;502;48.746;9.214;2023-03-05T03:47:21;15.80;;;9.43;;
1026;SDS011;502;48.746;9.214;2023-03-05T03:49:47;14.63;;;8.50;;
1026;SDS011;502;48.746;9.214;2023-03-05T03:52:14;16.30;;;8.90;;
1026;SDS011;502;48.746;9.214;2023-03-05T03:54:41;16.50;;;9.10;;
1026;SDS011;502;48.746;9.214;2023-03-05T03:57:08;14.90;;;8.27;;
1026;SDS011;502;48.746;9.214;2023-03-05T03:59:35;15.17;;;8.03;;
1026;SDS011;502;48.746;9.214;2023-03-05T04:02:02;15.90;;;9.37;;
1026;SDS011;502;48.746;9.214;2023-03-05T04:04:30;16.20;;;9.10;;
1026;SDS011;502;48.746;9.214;2023-03-05T04:06:56;18.53;;;9.07;;
1026;SDS011;502;48.746;9.214;2023-03-05T04:09:23;13.20;;;9.57;;
1026;SDS011;502;48.746;9.214;2023-03-05T04:11:50;14.90;;;9.00;;
1026;SDS011;502;48.746;9.214;2023-03-05T04:14:17;14.67;;;9.00;;
1026;SDS011;502;48.746;9.214;2023-03-05T04:16:44;16.30;;;9.23;;
1026;SDS011;502;48.746;9.214;2023-03-05T04:19:10;18.00;;;9.50;;
1026;SDS011;502;48.746;9.214;2023-03-05T04:21:38;15.20;;;9.40;;
1026;SDS011;502;48.746;9.214;2023-03-05T04:24:06;16.23;;;10.03;;
1026;SDS011;502;48.746;9.214;2023-03-05T04:26:33;15.70;;;9.00;;
1026;SDS011;502;48.746;9.214;2023-03-05T04:29:01;15.43;;;8.97;;
1026;SDS011;502;48.746;9.214;2023-03-05T04:31:27;16.70;;;8.67;;
1026;SDS011;502;48.746;9.214;2023-03-05T04:33:54;15.03;;;8.87;;
1026;SDS011;502;48.746;9.214;2023-03-05T04:36:21;15.00;;;9.47;;
1026;SDS011;502;48.746;9.214;2023-03-05T04:38:49;14.17;;;9.13;;
1026;SDS011;502;48.746;9.214;2023-03-05T04:41:16;13.67;;;8.27;;
1026;SDS011;502;48.746;9.214;2023-03-05T04:43:43;14.30;;;9.57;;
1026;SDS011;502;48.746;9.214;2023-03-05T04:46:10;17.77;;;9.57;;
1026;SDS011;502;48.746;9.214;2023-03-05T04:48:36;14.67;;;9.73;;
1026;SDS011;502;48.746;9.214;2023-03-05T04:51:03;13.77;;;8.30;;
1026;SDS011;502;48.746;9.214;2023-03-05T04:53:31;17.27;;;8.90;;
1026;SDS011;502;48.746;9.214;2023-03-05T04:55:59;15.33;;;8.70;;
1026;SDS011;502;48.746;9.214;2023-03-05T04:58:26;17.23;;;10.00;;
1026;SDS011;502;48.746;9.214;2023-03-05T05:00:53;16.70;;;9.33;;
1026;SDS011;502;48.746;9.214;2023-03-05T05:03:20;15.93;;;8.87;;
1026;SDS011;502;48.746;9.214;2023-03-05T05:05:52;14.87;;;9.23;;
1026;SDS011;502;48.746;9.214;2023-03-05T05:08:20;14.63;;;9.40;;
1026;SDS011;502;48.746;9.214;2023-03-05T05:10:53;16.93;;;9.53;;
1026;SDS011;502;48.746;9.214;2023-03-05T05:13:22;16.30;;;8.80;;
1026;SDS011;502;48.746;9.214;2023-03-05T05:15:49;14.00;;;9.03;;
1026;SDS011;502;48.746;9.214;2023-03-05T05:18:16;16.70;;;10.40;;
1026;SDS011;502;48.746;9.214;2023-03-05T05:20:43;18.10;;;9.53;;
1026;SDS011;502;48.746;9.214;2023-03-05T05:23:09;15.03;;;9.80;;
1026;SDS011;502;48.746;9.214;2023-03-05T05:25:36;21.40;;;11.07;;
1026;SDS011;502;48.746;9.214;2023-03-05T05:28:03;20.37;;;10.30;;
1026;SDS011;502;48.746;9.214;2023-03-05T05:30:32;20.17;;;10.50;;
1026;SDS011;502;48.746;9.214;2023-03-05T05:32:58;17.50;;;10.90;;
1026;SDS011;502;48.746;9.214;2023-03-05T05:35:25;17.43;;;10.17;;
1026;SDS011;502;48.746;9.214;2023-03-05T05:37:52;17.43;;;9.70;;
1026;SDS011;502;48.746;9.214;2023-03-05T05:40:19;14.40;;;10.17;;
1026;SDS011;502;48.746;9.214;2023-03-05T05:42:46;20.63;;;12.30;;
1026;SDS011;502;48.746;9.214;2023-03-05T05:45:12;16.80;;;9.30;;
1026;SDS011;502;48.746;9.214;2023-03-05T05:47:41;16.60;;;10.60;;
1026;SDS011;502;48.746;9.214;2023-03-05T05:50:08;18.00;;;11.10;;
1026;SDS011;502;48.746;9.214;2023-03-05T05:52:36;17.10;;;10.07;;
1026;SDS011;502;48.746;9.214;2023-03-05T05:55:02;19.30;;;10.87;;
1026;SDS011;502;48.746;9.214;2023-03-05T05:57:30;19.50;;;11.20;;
1026;SDS011;502;48.746;9.214;2023-03-05T05:59:57;18.13;;;11.83;;
1026;SDS011;502;48.746;9.214;2023-03-05T06:02:24;16.97;;;9.67;;
1026;SDS011;502;48.746;9.214;2023-03-05T06:04:55;13.50;;;10.00;;
1026;SDS011;502;48.746;9.214;2023-03-05T06:07:23;18.80;;;11.60;;
1026;SDS011;502;48.746;9.214;2023-03-05T06:09:50;15.67;;;10.23;;
1026;SDS011;502;48.746;9.214;2023-03-05T06:12:17;16.60;;;11.50;;
1026;SDS011;502;48.746;9.214;2023-03-05T06:14:51;18.20;;;10.67;;
1026;SDS011;502;48.746;9.214;2023-03-05T06:17:21;19.37;;;11.87;;
1026;SDS011;502;48.746;9.214;2023-03-05T06:19:48;21.23;;;12.13;;
1026;SDS011;502;48.746;9.214;2023-03-05T06:22:19;18.97;;;12.67;;
1026;SDS011;502;48.746;9.214;2023-03-05T06:24:46;17.47;;;11.33;;
1026;SDS011;502;48.746;9.214;2023-03-05T06:27:13;18.10;;;11.80;;
1026;SDS011;502;48.746;9.214;2023-03-05T06:29:40;20.80;;;12.53;;
1026;SDS011;502;48.746;9.214;2023-03-05T06:32:07;19.23;;;11.33;;
1026;SDS011;502;48.746;9.214;2023-03-05T06:34:35;18.73;;;11.53;;
1026;SDS011;502;48.746;9.214;2023-03-05T06:37:02;17.40;;;12.77;;
1026;SDS011;502;48.746;9.214;2023-03-05T06:39:30;17.23;;;11.83;;
1026;SDS011;502;48.746;9.214;2023-03-05T06:41:57;19.77;;;11.70;;
1026;SDS011;502;48.746;9.214;2023-03-05T06:44:25;15.73;;;12.27;;
1026;SDS011;502;48.746;9.214;2023-03-05T06:46:51;21.37;;;12.77;;
1026;SDS011;502;48.746;9.214;2023-03-05T06:49:18;18.70;;;11.33;;
1026;SDS011;502;48.746;9.214;2023-03-05T06:51:45;18.50;;;12.13;;
1026;SDS011;502;48.746;9.214;2023-03-05T06:54:13;20.93;;;13.70;;
1026;SDS011;502;48.746;9.214;2023-03-05T06:56:43;18.27;;;11.67;;
1026;SDS011;502;48.746;9.214;2023-03-05T06:59:11;22.70;;;12.40;;
1026;SDS011;502;48.746;9.214;2023-03-05T07:01:40;16.83;;;11.37;;
1026;SDS011;502;48.746;9.214;2023-03-05T07:04:07;21.60;;;12.33;;
1026;SDS011;502;48.746;9.214;2023-03-05T07:06:35;21.03;;;13.07;;
1026;SDS011;502;48.746;9.214;2023-03-05T07:09:04;20.20;;;12.17;;
1026;SDS011;502;48.746;9.214;2023-03-05T07:11:32;22.40;;;12.73;;
1026;SDS011;502;48.746;9.214;2023-03-05T07:14:00;19.53;;;11.80;;
1026;SDS011;502;48.746;9.214;2023-03-05T07:16:28;18.00;;;12.40;;
1026;SDS011;502;48.746;9.214;2023-03-05T07:18:57;21.90;;;12.83;;
1026;SDS011;502;48.746;9.214;2023-03-05T07:21:25;18.90;;;11.57;;
1026;SDS011;502;48.746;9.214;2023-03-05T07:23:54;22.70;;;12.60;;
1026;SDS011;502;48.746;9.214;2023-03-05T07:26:21;20.67;;;12.33;;
1026;SDS011;502;48.746;9.214;2023-03-05T07:28:48;20.10;;;13.30;;
1026;SDS011;502;48.746;9.214;2023-03-05T07:31:17;19.13;;;13.10;;
1026;SDS011;502;48.746;9.214;2023-03-05T07:33:45;18.27;;;12.30;;
1026;SDS011;502;48.746;9.214;2023-03-05T07:36:13;20.57;;;12.23;;
1026;SDS011;502;48.746;9.214;2023-03-05T07:38:40;23.63;;;13.47;;
1026;SDS011;502;48.746;9.214;2023-03-05T07:41:08;17.73;;;11.83;;
1026;SDS011;502;48.746;9.214;2023-03-05T07:43:36;18.40;;;12.20;;
1026;SDS011;502;48.746;9.214;2023-03-05T07:46:03;17.63;;;11.33;;
1026;SDS011;502;48.746;9.214;2023-03-05T07:48:32;20.90;;;12.90;;
1026;SDS011;502;48.746;9.214;2023-03-05T07:50:59;18.87;;;12.50;;
1026;SDS011;502;48.746;9.214;2023-03-05T07:53:27;15.77;;;11.47;;
1026;SDS011;502;48.746;9.214;2023-03-05T07:55:54;17.67;;;12.03;;
1026;SDS011;502;48.746;9.214;2023-03-05T07:58:21;18.40;;;11.43;;
1026;SDS011;502;48.746;9.214;2023-03-05T08:00:49;16.77;;;11.20;;
1026;SDS011;502;48.746;9.214;2023-03-05T08:03:16;20.20;;;12.43;;
1026;SDS011;502;48.746;9.214;2023-03-05T08:05:44;16.20;;;10.43;;
1026;SDS011;502;48.746;9.214;2023-03-05T08:08:11;19.70;;;12.10;;
1026;SDS011;502;48.746;9.214;2023-03-05T08:10:38;16.30;;;10.63;;
1026;SDS011;502;48.746;9.214;2023-03-05T08:13:05;17.83;;;11.30;;
1026;SDS011;502;48.746;9.214;2023-03-05T08:15:31;17.70;;;12.30;;
1026;SDS011;502;48.746;9.214;2023-03-05T08:17:59;19.43;;;10.27;;
1026;SDS011;502;48.746;9.214;2023-03-05T08:20:26;16.73;;;10.97;;
1026;SDS011;502;48.746;9.214;2023-03-05T08:22:54;17.67;;;10.77;;
1026;SDS011;502;48.746;9.214;2023-03-05T08:25:20;18.07;;;11.80;;
1026;SDS011;502;48.746;9.214;2023-03-05T08:27:47;18.77;;;12.37;;
1026;SDS011;502;48.746;9.214;2023-03-05T08:30:15;16.30;;;10.67;;
1026;SDS011;502;48.746;9.214;2023-03-05T08:32:43;19.23;;;12.23;;
1026;SDS011;502;48.746;9.214;2023-03-05T08:35:10;17.90;;;11.50;;
1026;SDS011;502;48.746;9.214;2023-03-05T08:37:37;16.00;;;10.40;;
1026;SDS011;502;48.746;9.214;2023-03-05T08:40:06;14.70;;;10.40;;
1026;SDS011;502;48.746;9.214;2023-03-05T08:42:34;19.20;;;10.53;;
1026;SDS011;502;48.746;9.214;2023-03-05T08:45:01;16.77;;;11.83;;
1026;SDS011;502;48.746;9.214;2023-03-05T08:47:27;19.40;;;13.30;;
1026;SDS011;502;48.746;9.214;2023-03-05T08:49:54;16.97;;;11.43;;
1026;SDS011;502;48.746;9.214;2023-03-05T08:52:22;15.80;;;10.63;;
1026;SDS011;502;48.746;9.214;2023-03-05T08:54:52;20.70;;;12.50;;
1026;SDS011;502;48.746;9.214;2023-03-05T08:57:20;17.67;;;11.70;;
1026;SDS011;502;48.746;9.214;2023-03-05T08:59:47;19.77;;;12.50;;
1026;SDS011;502;48.746;9.214;2023-03-05T09:02:14;18.37;;;12.50;;
1026;SDS011;502;48.746;9.214;2023-03-05T09:04:41;16.20;;;11.20;;
1026;SDS011;502;48.746;9.214;2023-03-05T09:07:08;18.70;;;11.97;;
1026;SDS011;502;48.746;9.214;2023-03-05T09:09:35;19.10;;;13.17;;
1026;SDS011;502;48.746;9.214;2023-03-05T09:12:02;18.87;;;12.83;;
1026;SDS011;502;48.746;9.214;2023-03-05T09:14:31;17.03;;;10.73;;
1026;SDS011;502;48.746;9.214;2023-03-05T09:16:58;17.93;;;11.07;;
1026;SDS011;502;48.746;9.214;2023-03-05T09:19:24;19.97;;;12.40;;
1026;SDS011;502;48.746;9.214;2023-03-05T09:21:51;17.57;;;10.87;;
1026;SDS011;502;48.746;9.214;2023-03-05T09:24:18;18.70;;;11.83;;
1026;SDS011;502;48.746;9.214;2023-03-05T09:26:45;19.67;;;11.77;;
1026;SDS011;502;48.746;9.214;2023-03-05T09:29:12;24.63;;;13.57;;
1026;SDS011;502;48.746;9.214;2023-03-05T09:31:40;16.77;;;11.53;;
1026;SDS011;502;48.746;9.214;2023-03-05T09:34:09;17.73;;;12.13;;
1026;SDS011;502;48.746;9.214;2023-03-05T09:36:36;21.90;;;16.17;;
1026;SDS011;502;48.746;9.214;2023-03-05T09:39:03;20.30;;;13.20;;
1026;SDS011;502;48.746;9.214;2023-03-05T09:41:34;19.63;;;13.20;;
1026;SDS011;502;48.746;9.214;2023-03-05T09:44:07;17.80;;;11.83;;
1026;SDS011;502;48.746;9.214;2023-03-05T09:47:02;17.00;;;10.87;;
1026;SDS011;502;48.746;9.214;2023-03-05T09:49:38;15.50;;;10.83;;
1026;SDS011;502;48.746;9.214;2023-03-05T09:52:12;16.50;;;11.83;;
1026;SDS011;502;48.746;9.214;2023-03-05T09:54:42;17.93;;;12.57;;
1026;SDS011;502;48.746;9.214;2023-03-05T09:57:12;15.30;;;10.40;;
1026;SDS011;502;48.746;9.214;2023-03-05T09:59:44;18.30;;;12.20;;
1026;SDS011;502;48.746;9.214;2023-03-05T10:02:16;19.50;;;11.93;;
1026;SDS011;502;48.746;9.214;2023-03-05T10:04:46;17.43;;;12.23;;
1026;SDS011;502;48.746;9.214;2023-03-05T10:07:16;17.73;;;11.37;;
1026;SDS011;502;48.746;9.214;2023-03-05T10:09:48;15.70;;;11.30;;
1026;SDS011;502;48.746;9.214;2023-03-05T10:12:22;14.83;;;10.83;;
1026;SDS011;502;48.746;9.214;2023-03-05T10:14:53;15.63;;;11.60;;
1026;SDS011;502;48.746;9.214;2023-03-05T10:17:30;24.27;;;14.73;;
1026;SDS011;502;48.746;9.214;2023-03-05T10:20:19;19.17;;;12.30;;
1026;SDS011;502;48.746;9.214;2023-03-05T10:22:55;20.37;;;12.57;;
1026;SDS011;502;48.746;9.214;2023-03-05T10:25:50;19.57;;;11.93;;
1026;SDS011;502;48.746;9.214;2023-03-05T10:28:21;18.30;;;11.83;;
1026;SDS011;502;48.746;9.214;2023-03-05T10:30:57;18.23;;;12.23;;
1026;SDS011;502;48.746;9.214;2023-03-05T10:33:46;18.63;;;12.87;;
1026;SDS011;502;48.746;9.214;2023-03-05T10:36:26;21.60;;;12.40;;
1026;SDS011;502;48.746;9.214;2023-03-05T10:39:29;18.70;;;12.20;;
1026;SDS011;502;48.746;9.214;2023-03-05T10:42:06;17.67;;;11.93;;
1026;SDS011;502;48.746;9.214;2023-03-05T10:44:40;19.60;;;12.70;;
1026;SDS011;502;48.746;9.214;2023-03-05T10:47:11;18.20;;;12.53;;
1026;SDS011;502;48.746;9.214;2023-03-05T10:49:44;19.90;;;12.70;;
1026;SDS011;502;48.746;9.214;2023-03-05T10:52:15;18.53;;;12.70;;
1026;SDS011;502;48.746;9.214;2023-03-05T10:54:43;19.00;;;12.57;;
1026;SDS011;502;48.746;9.214;2023-03-05T10:57:14;16.63;;;12.63;;
1026;SDS011;502;48.746;9.214;2023-03-05T10:59:43;18.83;;;12.80;;
1026;SDS011;502;48.746;9.214;2023-03-05T11:02:13;18.03;;;11.47;;
1026;SDS011;502;48.746;9.214;2023-03-05T11:04:40;18.67;;;13.07;;
1026;SDS011;502;48.746;9.214;2023-03-05T11:07:27;16.47;;;11.63;;
1026;SDS011;502;48.746;9.214;2023-03-05T11:12:40;17.07;;;11.83;;
1026;SDS011;502;48.746;9.214;2023-03-05T11:15:18;21.13;;;14.33;;
1026;SDS011;502;48.746;9.214;2023-03-05T11:18:02;17.00;;;11.70;;
1026;SDS011;502;48.746;9.214;2023-03-05T11:20:32;17.47;;;12.33;;
1026;SDS011;502;48.746;9.214;2023-03-05T11:23:02;20.27;;;12.67;;
1026;SDS011;502;48.746;9.214;2023-03-05T11:25:30;16.43;;;12.63;;
1026;SDS011;502;48.746;9.214;2023-03-05T11:27:57;20.20;;;13.30;;
1026;SDS011;502;48.746;9.214;2023-03-05T11:30:26;22.43;;;14.50;;
1026;SDS011;502;48.746;9.214;2023-03-05T11:33:06;18.57;;;12.93;;
1026;SDS011;502;48.746;9.214;2023-03-05T11:35:35;17.70;;;13.07;;
1026;SDS011;502;48.746;9.214;2023-03-05T11:38:05;17.87;;;11.03;;
1026;SDS011;502;48.746;9.214;2023-03-05T11:40:33;14.70;;;10.73;;
1026;SDS011;502;48.746;9.214;2023-03-05T11:43:01;21.17;;;13.07;;
1026;SDS011;502;48.746;9.214;2023-03-05T11:45:30;16.10;;;11.90;;
1026;SDS011;502;48.746;9.214;2023-03-05T11:47:59;22.10;;;12.00;;
1026;SDS011;502;48.746;9.214;2023-03-05T11:50:29;18.70;;;12.13;;
1026;SDS011;502;48.746;9.214;2023-03-05T11:52:57;17.83;;;11.37;;
1026;SDS011;502;48.746;9.214;2023-03-05T11:55:28;22.60;;;13.70;;
1026;SDS011;502;48.746;9.214;2023-03-05T11:58:00;18.70;;;12.30;;
1026;SDS011;502;48.746;9.214;2023-03-05T12:00:37;19.53;;;12.43;;
1026;SDS011;502;48.746;9.214;2023-03-05T12:03:10;17.23;;;11.23;;
1026;SDS011;502;48.746;9.214;2023-03-05T12:05:39;22.33;;;12.90;;
1026;SDS011;502;48.746;9.214;2023-03-05T12:08:08;20.60;;;12.57;;
1026;SDS011;502;48.746;9.214;2023-03-05T12:10:39;19.53;;;12.10;;
1026;SDS011;502;48.746;9.214;2023-03-05T12:13:10;17.43;;;12.60;;
1026;SDS011;502;48.746;9.214;2023-03-05T12:15:42;20.23;;;12.17;;
1026;SDS011;502;48.746;9.214;2023-03-05T12:18:14;17.17;;;11.73;;
1026;SDS011;502;48.746;9.214;2023-03-05T12:20:47;15.70;;;11.10;;
1026;SDS011;502;48.746;9.214;2023-03-05T12:23:21;20.87;;;13.20;;
1026;SDS011;502;48.746;9.214;2023-03-05T12:25:53;17.47;;;11.90;;
1026;SDS011;502;48.746;9.214;2023-03-05T12:31:25;18.03;;;12.50;;
1026;SDS011;502;48.746;9.214;2023-03-05T12:33:54;19.63;;;13.63;;
1026;SDS011;502;48.746;9.214;2023-03-05T12:36:31;19.73;;;12.60;;
1026;SDS011;502;48.746;9.214;2023-03-05T12:39:00;19.97;;;12.33;;
1026;SDS011;502;48.746;9.214;2023-03-05T12:49:45;19.90;;;13.30;;
1026;SDS011;502;48.746;9.214;2023-03-05T12:52:17;17.83;;;12.20;;
1026;SDS011;502;48.746;9.214;2023-03-05T12:54:55;15.60;;;10.83;;
1026;SDS011;502;48.746;9.214;2023-03-05T12:57:27;17.20;;;11.30;;
1026;SDS011;502;48.746;9.214;2023-03-05T12:59:57;16.10;;;11.50;;
1026;SDS011;502;48.746;9.214;2023-03-05T13:02:26;19.13;;;12.10;;
1026;SDS011;502;48.746;9.214;2023-03-05T13:04:56;15.37;;;11.17;;
1026;SDS011;502;48.746;9.214;2023-03-05T13:07:24;17.60;;;11.47;;
1026;SDS011;502;48.746;9.214;2023-03-05T13:09:51;19.30;;;12.67;;
1026;SDS011;502;48.746;9.214;2023-03-05T13:12:23;17.27;;;10.40;;
1026;SDS011;502;48.746;9.214;2023-03-05T13:14:56;23.20;;;13.47;;
1026;SDS011;502;48.746;9.214;2023-03-05T13:17:33;19.00;;;11.90;;
1026;SDS011;502;48.746;9.214;2023-03-05T13:20:03;17.00;;;10.83;;
1026;SDS011;502;48.746;9.214;2023-03-05T13:23:01;18.30;;;11.30;;
1026;SDS011;502;48.746;9.214;2023-03-05T13:25:44;18.17;;;12.37;;
1026;SDS011;502;48.746;9.214;2023-03-05T13:28:12;17.60;;;11.00;;
1026;SDS011;502;48.746;9.214;2023-03-05T13:30:44;16.50;;;10.70;;
1026;SDS011;502;48.746;9.214;2023-03-05T13:33:17;16.83;;;10.37;;
1026;SDS011;502;48.746;9.214;2023-03-05T13:35:47;21.47;;;12.13;;
1026;SDS011;502;48.746;9.214;2023-03-05T13:38:25;20.20;;;12.90;;
1026;SDS011;502;48.746;9.214;2023-03-05T13:41:03;16.97;;;11.33;;
1026;SDS011;502;48.746;9.214;2023-03-05T13:43:43;17.00;;;11.17;;
1026;SDS011;502;48.746;9.214;2023-03-05T13:46:12;17.57;;;10.60;;
1026;SDS011;502;48.746;9.214;2023-03-05T13:48:38;13.57;;;10.50;;
1026;SDS011;502;48.746;9.214;2023-03-05T13:51:05;16.10;;;10.80;;
1026;SDS011;502;48.746;9.214;2023-03-05T13:53:33;12.70;;;10.90;;
1026;SDS011;502;48.746;9.214;2023-03-05T13:56:01;14.50;;;10.00;;
1026;SDS011;502;48.746;9.214;2023-03-05T13:58:48;15.07;;;9.07;;
1026;SDS011;502;48.746;9.214;2023-03-05T14:01:20;15.33;;;10.30;;
1026;SDS011;502;48.746;9.214;2023-03-05T14:03:52;14.43;;;9.83;;
1026;SDS011;502;48.746;9.214;2023-03-05T14:06:21;16.13;;;9.63;;
1026;SDS011;502;48.746;9.214;2023-03-05T14:08:49;16.03;;;10.30;;
1026;SDS011;502;48.746;9.214;2023-03-05T14:11:17;15.17;;;9.90;;
1026;SDS011;502;48.746;9.214;2023-03-05T14:13:44;17.00;;;10.13;;
1026;SDS011;502;48.746;9.214;2023-03-05T14:18:53;16.00;;;10.90;;
1026;SDS011;502;48.746;9.214;2023-03-05T14:21:20;15.53;;;9.10;;
1026;SDS011;502;48.746;9.214;2023-03-05T14:23:48;13.53;;;10.00;;
1026;SDS011;502;48.746;9.214;2023-03-05T14:26:22;15.90;;;9.90;;
1026;SDS011;502;48.746;9.214;2023-03-05T14:28:51;13.30;;;9.03;;
1026;SDS011;502;48.746;9.214;2023-03-05T14:31:19;17.90;;;10.50;;
1026;SDS011;502;48.746;9.214;2023-03-05T14:33:46;15.40;;;9.47;;
1026;SDS011;502;48.746;9.214;2023-03-05T14:36:19;14.83;;;10.40;;
1026;SDS011;502;48.746;9.214;2023-03-05T14:38:46;14.70;;;9.60;;
1026;SDS011;502;48.746;9.214;2023-03-05T14:41:33;15.50;;;9.80;;
1026;SDS011;502;48.746;9.214;2023-03-05T14:44:04;13.10;;;9.50;;
1026;SDS011;502;48.746;9.214;2023-03-05T14:46:36;11.83;;;9.57;;
1026;SDS011;502;48.746;9.214;2023-03-05T14:49:03;16.63;;;11.20;;
1026;SDS011;502;48.746;9.214;2023-03-05T14:51:31;16.03;;;10.57;;
1026;SDS011;502;48.746;9.214;2023-03-05T14:53:59;15.50;;;10.30;;
1026;SDS011;502;48.746;9.214;2023-03-05T14:56:26;13.10;;;9.07;;
1026;SDS011;502;48.746;9.214;2023-03-05T14:58:54;13.07;;;8.77;;
1026;SDS011;502;48.746;9.214;2023-03-05T15:01:21;14.80;;;9.97;;
1026;SDS011;502;48.746;9.214;2023-03-05T15:03:49;20.73;;;9.60;;
1026;SDS011;502;48.746;9.214;2023-03-05T15:06:17;16.30;;;10.80;;
1026;SDS011;502;48.746;9.214;2023-03-05T15:08:47;14.60;;;10.03;;
1026;SDS011;502;48.746;9.214;2023-03-05T15:11:14;13.33;;;9.50;;
1026;SDS011;502;48.746;9.214;2023-03-05T15:13:41;14.17;;;10.03;;
1026;SDS011;502;48.746;9.214;2023-03-05T15:16:09;14.23;;;10.40;;
1026;SDS011;502;48.746;9.214;2023-03-05T15:18:38;14.73;;;9.60;;
1026;SDS011;502;48.746;9.214;2023-03-05T15:21:05;15.80;;;10.37;;
1026;SDS011;502;48.746;9.214;2023-03-05T15:23:32;16.73;;;10.63;;
1026;SDS011;502;48.746;9.214;2023-03-05T15:26:04;15.87;;;10.77;;
1026;SDS011;502;48.746;9.214;2023-03-05T15:28:32;13.67;;;9.97;;
1026;SDS011;502;48.746;9.214;2023-03-05T15:31:00;15.20;;;11.00;;
1026;SDS011;502;48.746;9.214;2023-03-05T15:33:27;14.57;;;10.37;;
1026;SDS011;502;48.746;9.214;2023-03-05T15:35:55;16.17;;;10.77;;